SBULSBGO

Guest
Details From SBUL - TEN CEL AV CESAR BOMBONATO
To SBGO - Santo Genoveva
Flight Number -
Tags generated
Created
Modified
Stats Distance 147 nm / 272 km
Max Altitude 7,100 ft / 2,164 m
Waypoints 5
Social Downloads 2
Likes 0
Share VATSIM

Download

Looking for another format? Having issues loading an existing format? Contact us
Advertisement - Login to hide

Notes

Basic altitude profile: - Ascent Rate: 1200ft/min - Ascent Speed: 120kts - Cruise Altitude: 10500ft - Cruise Speed: 160kts - Descent Rate: 1500ft/min - Descent Speed: 140kts Options: - Use NATs: yes - Use PACOTS: yes - Use low airways: yes - Use high airways: yes

Route

SBUL GUARI W24 GOI SBGO

ID Type Via Altitude Latitude Longitude Leg Dist Tot Dist Heading (true) Name
O SBUL APT - 0 ft / 0 m -18.88284˚ -48.22559˚ - 0 nm - TEN CEL AV CESAR BOMBONATO
GUARI FIX - 7,100 ft / 2,164 m -18.57883˚ -48.36633˚ 19 nm 19 nm 336° / 336° -
GAZAR FIX W24 (AWY-LO) 6,500 ft / 1,981 m -17.04883˚ -49.03550˚ 99 nm 119 nm 337° / 337° -
GOI VOR W24 (AWY-LO) 6,500 ft / 1,981 m -16.63243˚ -49.21536˚ 27 nm 146 nm 338° / 338° GOIANIA VOR-DME
O SBGO APT - 0 ft / 0 m -16.63203˚ -49.22069˚ 0 nm 146 nm 274° / 274° Santo Genoveva

Altitude Profile

Advertisement - Login to hide

SBUL

Details ICAO SBUL (UDI)
Name TEN CEL AV CESAR BOMBONATO
Region Brazil
Timezone America/Sao_Paulo (UTC-2.0)
Stats Elevation 3,094 ft / 943 m (AMSL)
Location -18.882843° -48.225593°
Runways 1
Magnetic Variation 21.257° W

METAR

Not found

TAF

TAF SBUL 110900Z 1112/1124 29008KT CAVOK TX28/1118Z TN22/1123Z BECMG 1112/1114 SCT030 PROB30 TEMPO 1115/1120 24010KT TSRA SCT030 FEW040CB BECMG 1122/1124 06005KT RMK PGD

Decode

Departure Runways

ID Width Length Bearing (true) Bearing (mag) Surface Threshold Offset Overrun Length
04 148 ft / 45 m 6,418 ft / 1,956 m 22.56° 43.82° Asphalt 0 ft / 0 m 0 ft / 0 m
22 148 ft / 45 m 6,418 ft / 1,956 m 202.55° 223.81° Asphalt 0 ft / 0 m 0 ft / 0 m

SBGO

Details ICAO SBGO (GYN)
Name Santo Genoveva
Region Brazil
Timezone America/Sao_Paulo (UTC-2.0)
Stats Elevation 2,450 ft / 747 m (AMSL)
Location -16.632032° -49.220686°
Runways 1
Magnetic Variation 20.988° W

METAR

SBGO 111300Z 34004KT 9999 BKN015 BKN100 24/21 Q1012

Decode

TAF

TAF TAF SBGO 110800Z 1112/1212 31006KT 9999 SCT025 TX27/1118Z TN20/1109Z BECMG 1113/1115 33005KT BKN030 PROB40 1118/1122 01005KT TS VCSH SCT020 FEW027CB BECMG 1122/1123 29005KT SCT030BE BECMG 1202/1204 34005KT SCT020 BECMG 1210/1212 28007KT BKN015 RMK PEW

Decode

Destination Runways

ID Width Length Bearing (true) Bearing (mag) Surface Threshold Offset Overrun Length
14 148 ft / 45 m 8,208 ft / 2,502 m 120.42° 141.41° Asphalt 0 ft / 0 m 0 ft / 0 m
32 148 ft / 45 m 8,208 ft / 2,502 m 300.41° 321.40° Asphalt 980 ft / 299 m 0 ft / 0 m

Popular Alternatives